sensor_id;sensor_type;location;lat;lon;timestamp;P1;durP1;ratioP1;P2;durP2;ratioP2
5754;SDS011;2902;42.130;24.732;2022-08-01T00:00:09;6.03;;;5.73;;
5754;SDS011;2902;42.130;24.732;2022-08-01T00:02:37;6.03;;;5.73;;
5754;SDS011;2902;42.130;24.732;2022-08-01T00:05:04;5.93;;;5.63;;
5754;SDS011;2902;42.130;24.732;2022-08-01T00:07:31;5.53;;;5.33;;
5754;SDS011;2902;42.130;24.732;2022-08-01T00:09:58;6.57;;;6.20;;
5754;SDS011;2902;42.130;24.732;2022-08-01T00:12:25;6.97;;;6.57;;
5754;SDS011;2902;42.130;24.732;2022-08-01T00:14:51;6.77;;;6.47;;
5754;SDS011;2902;42.130;24.732;2022-08-01T00:17:19;6.40;;;6.10;;
5754;SDS011;2902;42.130;24.732;2022-08-01T00:19:46;6.00;;;5.77;;
5754;SDS011;2902;42.130;24.732;2022-08-01T00:22:13;6.30;;;5.73;;
5754;SDS011;2902;42.130;24.732;2022-08-01T00:24:40;6.47;;;6.17;;
5754;SDS011;2902;42.130;24.732;2022-08-01T00:27:06;6.23;;;5.93;;
5754;SDS011;2902;42.130;24.732;2022-08-01T00:29:33;7.03;;;6.43;;
5754;SDS011;2902;42.130;24.732;2022-08-01T00:32:00;6.40;;;6.13;;
5754;SDS011;2902;42.130;24.732;2022-08-01T00:34:28;6.37;;;6.00;;
5754;SDS011;2902;42.130;24.732;2022-08-01T00:36:54;6.37;;;6.07;;
5754;SDS011;2902;42.130;24.732;2022-08-01T00:39:21;6.60;;;6.30;;
5754;SDS011;2902;42.130;24.732;2022-08-01T00:41:48;5.97;;;5.77;;
5754;SDS011;2902;42.130;24.732;2022-08-01T00:44:15;5.83;;;5.63;;
5754;SDS011;2902;42.130;24.732;2022-08-01T00:46:42;6.13;;;5.73;;
5754;SDS011;2902;42.130;24.732;2022-08-01T00:49:08;6.23;;;5.83;;
5754;SDS011;2902;42.130;24.732;2022-08-01T00:51:36;6.63;;;6.30;;
5754;SDS011;2902;42.130;24.732;2022-08-01T00:54:04;7.10;;;6.70;;
5754;SDS011;2902;42.130;24.732;2022-08-01T00:56:31;6.10;;;5.90;;
5754;SDS011;2902;42.130;24.732;2022-08-01T00:58:58;6.43;;;6.10;;
5754;SDS011;2902;42.130;24.732;2022-08-01T01:01:24;6.13;;;5.77;;
5754;SDS011;2902;42.130;24.732;2022-08-01T01:03:52;6.77;;;6.30;;
5754;SDS011;2902;42.130;24.732;2022-08-01T01:06:23;6.70;;;6.40;;
5754;SDS011;2902;42.130;24.732;2022-08-01T01:08:58;6.10;;;5.60;;
5754;SDS011;2902;42.130;24.732;2022-08-01T01:11:42;5.93;;;5.73;;
5754;SDS011;2902;42.130;24.732;2022-08-01T01:14:16;6.27;;;5.93;;
5754;SDS011;2902;42.130;24.732;2022-08-01T01:16:53;5.97;;;5.57;;
5754;SDS011;2902;42.130;24.732;2022-08-01T01:19:23;6.03;;;5.73;;
5754;SDS011;2902;42.130;24.732;2022-08-01T01:22:03;5.90;;;5.70;;
5754;SDS011;2902;42.130;24.732;2022-08-01T01:24:45;5.87;;;5.43;;
5754;SDS011;2902;42.130;24.732;2022-08-01T01:27:29;6.53;;;6.13;;
5754;SDS011;2902;42.130;24.732;2022-08-01T01:30:07;6.47;;;5.90;;
5754;SDS011;2902;42.130;24.732;2022-08-01T01:32:35;6.07;;;5.70;;
5754;SDS011;2902;42.130;24.732;2022-08-01T01:35:06;6.50;;;6.10;;
5754;SDS011;2902;42.130;24.732;2022-08-01T01:37:35;6.30;;;5.90;;
5754;SDS011;2902;42.130;24.732;2022-08-01T01:40:05;6.63;;;6.23;;
5754;SDS011;2902;42.130;24.732;2022-08-01T01:42:35;6.20;;;5.80;;
5754;SDS011;2902;42.130;24.732;2022-08-01T01:45:04;6.27;;;5.97;;
5754;SDS011;2902;42.130;24.732;2022-08-01T01:47:34;6.20;;;5.70;;
5754;SDS011;2902;42.130;24.732;2022-08-01T01:50:02;6.33;;;6.00;;
5754;SDS011;2902;42.130;24.732;2022-08-01T01:52:31;5.90;;;5.40;;
5754;SDS011;2902;42.130;24.732;2022-08-01T01:54:59;6.00;;;5.70;;
5754;SDS011;2902;42.130;24.732;2022-08-01T01:57:31;6.37;;;5.97;;
5754;SDS011;2902;42.130;24.732;2022-08-01T02:00:02;6.50;;;6.00;;
5754;SDS011;2902;42.130;24.732;2022-08-01T02:02:33;5.60;;;5.30;;
5754;SDS011;2902;42.130;24.732;2022-08-01T02:05:02;6.03;;;5.73;;
5754;SDS011;2902;42.130;24.732;2022-08-01T02:07:30;5.83;;;5.43;;
5754;SDS011;2902;42.130;24.732;2022-08-01T02:09:58;5.87;;;5.57;;
5754;SDS011;2902;42.130;24.732;2022-08-01T02:12:27;6.37;;;5.87;;
5754;SDS011;2902;42.130;24.732;2022-08-01T02:14:55;5.90;;;5.60;;
5754;SDS011;2902;42.130;24.732;2022-08-01T02:17:23;5.90;;;5.50;;
5754;SDS011;2902;42.130;24.732;2022-08-01T02:19:53;6.37;;;5.87;;
5754;SDS011;2902;42.130;24.732;2022-08-01T02:22:21;5.63;;;5.40;;
5754;SDS011;2902;42.130;24.732;2022-08-01T02:24:54;8.17;;;5.73;;
5754;SDS011;2902;42.130;24.732;2022-08-01T02:27:25;5.93;;;5.43;;
5754;SDS011;2902;42.130;24.732;2022-08-01T02:29:57;4.83;;;4.63;;
5754;SDS011;2902;42.130;24.732;2022-08-01T02:32:27;5.00;;;4.80;;
5754;SDS011;2902;42.130;24.732;2022-08-01T02:35:00;5.57;;;5.10;;
5754;SDS011;2902;42.130;24.732;2022-08-01T02:37:29;5.37;;;5.07;;
5754;SDS011;2902;42.130;24.732;2022-08-01T02:39:59;5.67;;;5.27;;
5754;SDS011;2902;42.130;24.732;2022-08-01T02:42:28;5.40;;;5.10;;
5754;SDS011;2902;42.130;24.732;2022-08-01T02:44:57;5.07;;;4.83;;
5754;SDS011;2902;42.130;24.732;2022-08-01T02:47:25;5.23;;;4.83;;
5754;SDS011;2902;42.130;24.732;2022-08-01T02:49:54;4.87;;;4.67;;
5754;SDS011;2902;42.130;24.732;2022-08-01T02:52:23;5.53;;;5.13;;
5754;SDS011;2902;42.130;24.732;2022-08-01T02:54:53;5.60;;;5.17;;
5754;SDS011;2902;42.130;24.732;2022-08-01T02:57:22;4.90;;;4.60;;
5754;SDS011;2902;42.130;24.732;2022-08-01T02:59:50;5.43;;;5.13;;
5754;SDS011;2902;42.130;24.732;2022-08-01T03:02:19;5.80;;;5.43;;
5754;SDS011;2902;42.130;24.732;2022-08-01T03:04:49;5.40;;;5.00;;
5754;SDS011;2902;42.130;24.732;2022-08-01T03:07:18;4.87;;;4.67;;
5754;SDS011;2902;42.130;24.732;2022-08-01T03:09:50;5.00;;;4.80;;
5754;SDS011;2902;42.130;24.732;2022-08-01T03:12:19;5.40;;;4.87;;
5754;SDS011;2902;42.130;24.732;2022-08-01T03:14:49;4.77;;;4.57;;
5754;SDS011;2902;42.130;24.732;2022-08-01T03:17:20;4.73;;;4.53;;
5754;SDS011;2902;42.130;24.732;2022-08-01T03:19:48;4.47;;;4.13;;
5754;SDS011;2902;42.130;24.732;2022-08-01T03:22:17;4.43;;;4.10;;
5754;SDS011;2902;42.130;24.732;2022-08-01T03:24:46;4.30;;;3.90;;
5754;SDS011;2902;42.130;24.732;2022-08-01T03:27:17;7.43;;;4.00;;
5754;SDS011;2902;42.130;24.732;2022-08-01T03:29:44;4.53;;;4.13;;
5754;SDS011;2902;42.130;24.732;2022-08-01T03:32:12;4.53;;;4.33;;
5754;SDS011;2902;42.130;24.732;2022-08-01T03:34:41;4.63;;;4.33;;
5754;SDS011;2902;42.130;24.732;2022-08-01T03:37:09;3.93;;;3.80;;
5754;SDS011;2902;42.130;24.732;2022-08-01T03:39:40;3.80;;;3.50;;
5754;SDS011;2902;42.130;24.732;2022-08-01T03:42:15;4.47;;;4.07;;
5754;SDS011;2902;42.130;24.732;2022-08-01T03:44:47;4.33;;;4.03;;
5754;SDS011;2902;42.130;24.732;2022-08-01T03:47:18;3.93;;;3.73;;
5754;SDS011;2902;42.130;24.732;2022-08-01T03:49:48;5.80;;;3.43;;
5754;SDS011;2902;42.130;24.732;2022-08-01T03:52:17;3.83;;;3.63;;
5754;SDS011;2902;42.130;24.732;2022-08-01T03:54:47;4.40;;;4.10;;
5754;SDS011;2902;42.130;24.732;2022-08-01T03:57:19;4.20;;;3.83;;
5754;SDS011;2902;42.130;24.732;2022-08-01T03:59:47;4.10;;;3.70;;
5754;SDS011;2902;42.130;24.732;2022-08-01T04:02:15;4.07;;;3.77;;
5754;SDS011;2902;42.130;24.732;2022-08-01T04:04:43;4.20;;;3.80;;
5754;SDS011;2902;42.130;24.732;2022-08-01T04:07:21;4.17;;;3.53;;
5754;SDS011;2902;42.130;24.732;2022-08-01T04:09:49;3.90;;;3.70;;
5754;SDS011;2902;42.130;24.732;2022-08-01T04:12:15;6.07;;;3.97;;
5754;SDS011;2902;42.130;24.732;2022-08-01T04:14:44;4.13;;;3.50;;
5754;SDS011;2902;42.130;24.732;2022-08-01T04:17:11;3.80;;;3.60;;
5754;SDS011;2902;42.130;24.732;2022-08-01T04:19:38;3.10;;;2.90;;
5754;SDS011;2902;42.130;24.732;2022-08-01T04:22:04;3.70;;;3.40;;
5754;SDS011;2902;42.130;24.732;2022-08-01T04:24:33;3.10;;;2.90;;
5754;SDS011;2902;42.130;24.732;2022-08-01T04:27:03;4.80;;;3.73;;
5754;SDS011;2902;42.130;24.732;2022-08-01T04:29:35;3.17;;;3.07;;
5754;SDS011;2902;42.130;24.732;2022-08-01T04:32:05;3.83;;;2.70;;
5754;SDS011;2902;42.130;24.732;2022-08-01T04:34:33;2.90;;;2.80;;
5754;SDS011;2902;42.130;24.732;2022-08-01T04:37:01;3.00;;;2.90;;
5754;SDS011;2902;42.130;24.732;2022-08-01T04:39:31;2.90;;;2.73;;
5754;SDS011;2902;42.130;24.732;2022-08-01T04:42:01;3.27;;;3.07;;
5754;SDS011;2902;42.130;24.732;2022-08-01T04:44:31;5.97;;;3.20;;
5754;SDS011;2902;42.130;24.732;2022-08-01T04:46:58;3.17;;;2.87;;
5754;SDS011;2902;42.130;24.732;2022-08-01T04:49:30;3.30;;;3.10;;
5754;SDS011;2902;42.130;24.732;2022-08-01T04:51:57;3.50;;;3.20;;
5754;SDS011;2902;42.130;24.732;2022-08-01T04:54:25;3.63;;;3.30;;
5754;SDS011;2902;42.130;24.732;2022-08-01T04:56:52;5.90;;;3.40;;
5754;SDS011;2902;42.130;24.732;2022-08-01T04:59:20;3.67;;;2.90;;
5754;SDS011;2902;42.130;24.732;2022-08-01T05:02:06;5.93;;;3.07;;
5754;SDS011;2902;42.130;24.732;2022-08-01T05:04:34;5.73;;;2.67;;
5754;SDS011;2902;42.130;24.732;2022-08-01T05:07:01;3.07;;;2.60;;
5754;SDS011;2902;42.130;24.732;2022-08-01T05:09:29;2.87;;;2.70;;
5754;SDS011;2902;42.130;24.732;2022-08-01T05:11:57;3.83;;;2.80;;
5754;SDS011;2902;42.130;24.732;2022-08-01T05:14:24;3.40;;;3.20;;
5754;SDS011;2902;42.130;24.732;2022-08-01T05:16:51;4.90;;;3.20;;
5754;SDS011;2902;42.130;24.732;2022-08-01T05:19:18;5.67;;;2.60;;
5754;SDS011;2902;42.130;24.732;2022-08-01T05:21:47;3.60;;;3.30;;
5754;SDS011;2902;42.130;24.732;2022-08-01T05:24:13;2.50;;;2.40;;
5754;SDS011;2902;42.130;24.732;2022-08-01T05:26:40;3.97;;;3.03;;
5754;SDS011;2902;42.130;24.732;2022-08-01T05:29:07;3.40;;;3.10;;
5754;SDS011;2902;42.130;24.732;2022-08-01T05:31:34;6.17;;;3.40;;
5754;SDS011;2902;42.130;24.732;2022-08-01T05:34:00;3.33;;;3.00;;
5754;SDS011;2902;42.130;24.732;2022-08-01T05:36:27;4.67;;;3.03;;
5754;SDS011;2902;42.130;24.732;2022-08-01T05:38:56;8.47;;;3.70;;
5754;SDS011;2902;42.130;24.732;2022-08-01T05:41:22;4.23;;;3.10;;
5754;SDS011;2902;42.130;24.732;2022-08-01T05:43:49;5.63;;;3.00;;
5754;SDS011;2902;42.130;24.732;2022-08-01T05:46:16;3.00;;;2.80;;
5754;SDS011;2902;42.130;24.732;2022-08-01T05:48:42;3.40;;;3.10;;
5754;SDS011;2902;42.130;24.732;2022-08-01T05:51:09;5.27;;;2.27;;
5754;SDS011;2902;42.130;24.732;2022-08-01T05:53:36;10.20;;;2.78;;
5754;SDS011;2902;42.130;24.732;2022-08-01T05:56:04;3.35;;;2.78;;
5754;SDS011;2902;42.130;24.732;2022-08-01T05:58:31;14.37;;;2.97;;
5754;SDS011;2902;42.130;24.732;2022-08-01T06:00:58;3.37;;;2.30;;
5754;SDS011;2902;42.130;24.732;2022-08-01T06:03:24;2.57;;;1.80;;
5754;SDS011;2902;42.130;24.732;2022-08-01T06:05:51;3.67;;;1.90;;
5754;SDS011;2902;42.130;24.732;2022-08-01T06:08:18;2.00;;;1.90;;
5754;SDS011;2902;42.130;24.732;2022-08-01T06:10:45;9.40;;;3.00;;
5754;SDS011;2902;42.130;24.732;2022-08-01T06:13:13;2.17;;;2.07;;
5754;SDS011;2902;42.130;24.732;2022-08-01T06:15:40;2.63;;;1.83;;
5754;SDS011;2902;42.130;24.732;2022-08-01T06:18:06;3.75;;;1.85;;
5754;SDS011;2902;42.130;24.732;2022-08-01T06:20:33;9.20;;;2.03;;
5754;SDS011;2902;42.130;24.732;2022-08-01T06:23:00;1.97;;;1.87;;
5754;SDS011;2902;42.130;24.732;2022-08-01T06:25:27;4.50;;;1.90;;
5754;SDS011;2902;42.130;24.732;2022-08-01T06:27:53;3.40;;;1.93;;
5754;SDS011;2902;42.130;24.732;2022-08-01T06:30:22;1.97;;;1.70;;
5754;SDS011;2902;42.130;24.732;2022-08-01T06:32:49;4.83;;;1.67;;
5754;SDS011;2902;42.130;24.732;2022-08-01T06:35:16;13.40;;;2.57;;
5754;SDS011;2902;42.130;24.732;2022-08-01T06:37:43;3.17;;;1.80;;
5754;SDS011;2902;42.130;24.732;2022-08-01T06:40:12;7.63;;;2.07;;
5754;SDS011;2902;42.130;24.732;2022-08-01T06:42:39;2.53;;;1.77;;
5754;SDS011;2902;42.130;24.732;2022-08-01T06:45:06;3.53;;;1.73;;
5754;SDS011;2902;42.130;24.732;2022-08-01T06:47:35;1.93;;;1.67;;
5754;SDS011;2902;42.130;24.732;2022-08-01T06:50:03;3.83;;;2.47;;
5754;SDS011;2902;42.130;24.732;2022-08-01T06:52:31;2.83;;;2.10;;
5754;SDS011;2902;42.130;24.732;2022-08-01T06:54:57;2.97;;;2.03;;
5754;SDS011;2902;42.130;24.732;2022-08-01T06:57:24;3.93;;;2.00;;
5754;SDS011;2902;42.130;24.732;2022-08-01T06:59:51;19.10;;;2.70;;
5754;SDS011;2902;42.130;24.732;2022-08-01T07:02:18;4.93;;;2.50;;
5754;SDS011;2902;42.130;24.732;2022-08-01T07:04:46;2.53;;;1.80;;
5754;SDS011;2902;42.130;24.732;2022-08-01T07:07:13;4.93;;;1.77;;
5754;SDS011;2902;42.130;24.732;2022-08-01T07:09:40;5.20;;;1.90;;
5754;SDS011;2902;42.130;24.732;2022-08-01T07:12:07;5.33;;;1.83;;
5754;SDS011;2902;42.130;24.732;2022-08-01T07:14:35;3.60;;;1.90;;
5754;SDS011;2902;42.130;24.732;2022-08-01T07:17:02;2.93;;;1.70;;
5754;SDS011;2902;42.130;24.732;2022-08-01T07:19:28;2.60;;;1.63;;
5754;SDS011;2902;42.130;24.732;2022-08-01T07:21:56;8.83;;;2.17;;
5754;SDS011;2902;42.130;24.732;2022-08-01T07:24:23;5.13;;;1.70;;
5754;SDS011;2902;42.130;24.732;2022-08-01T07:26:50;1.80;;;1.60;;
5754;SDS011;2902;42.130;24.732;2022-08-01T07:29:19;4.10;;;2.03;;
5754;SDS011;2902;42.130;24.732;2022-08-01T07:31:45;7.13;;;2.03;;
5754;SDS011;2902;42.130;24.732;2022-08-01T07:34:12;4.23;;;1.90;;
5754;SDS011;2902;42.130;24.732;2022-08-01T07:36:39;2.13;;;1.70;;
5754;SDS011;2902;42.130;24.732;2022-08-01T07:39:07;4.27;;;1.50;;
5754;SDS011;2902;42.130;24.732;2022-08-01T07:41:34;3.13;;;1.67;;
5754;SDS011;2902;42.130;24.732;2022-08-01T07:44:00;2.90;;;2.20;;
5754;SDS011;2902;42.130;24.732;2022-08-01T07:46:27;4.33;;;1.50;;
5754;SDS011;2902;42.130;24.732;2022-08-01T07:48:55;12.50;;;2.00;;
5754;SDS011;2902;42.130;24.732;2022-08-01T07:51:22;1.90;;;1.80;;
5754;SDS011;2902;42.130;24.732;2022-08-01T07:53:49;9.47;;;2.53;;
5754;SDS011;2902;42.130;24.732;2022-08-01T07:56:17;3.13;;;2.30;;
5754;SDS011;2902;42.130;24.732;2022-08-01T07:58:44;1.83;;;1.40;;
5754;SDS011;2902;42.130;24.732;2022-08-01T08:01:11;4.50;;;1.50;;
5754;SDS011;2902;42.130;24.732;2022-08-01T08:03:38;3.60;;;1.90;;
5754;SDS011;2902;42.130;24.732;2022-08-01T08:06:05;2.77;;;1.70;;
5754;SDS011;2902;42.130;24.732;2022-08-01T08:08:31;5.97;;;1.70;;
5754;SDS011;2902;42.130;24.732;2022-08-01T08:10:59;8.03;;;1.80;;
5754;SDS011;2902;42.130;24.732;2022-08-01T08:13:27;4.00;;;1.80;;
5754;SDS011;2902;42.130;24.732;2022-08-01T08:15:54;21.97;;;3.93;;
5754;SDS011;2902;42.130;24.732;2022-08-01T08:18:23;4.03;;;1.67;;
5754;SDS011;2902;42.130;24.732;2022-08-01T08:20:49;3.50;;;1.90;;
5754;SDS011;2902;42.130;24.732;2022-08-01T08:23:16;1.60;;;1.50;;
5754;SDS011;2902;42.130;24.732;2022-08-01T08:26:00;3.53;;;1.70;;
5754;SDS011;2902;42.130;24.732;2022-08-01T08:28:28;11.43;;;3.20;;
5754;SDS011;2902;42.130;24.732;2022-08-01T08:30:55;2.50;;;1.60;;
5754;SDS011;2902;42.130;24.732;2022-08-01T08:33:22;4.07;;;1.87;;
5754;SDS011;2902;42.130;24.732;2022-08-01T08:35:48;4.37;;;1.80;;
5754;SDS011;2902;42.130;24.732;2022-08-01T08:38:15;7.13;;;2.50;;
5754;SDS011;2902;42.130;24.732;2022-08-01T08:40:42;3.80;;;1.83;;
5754;SDS011;2902;42.130;24.732;2022-08-01T08:43:09;3.63;;;1.83;;
5754;SDS011;2902;42.130;24.732;2022-08-01T08:45:37;5.77;;;1.60;;
5754;SDS011;2902;42.130;24.732;2022-08-01T08:48:05;4.60;;;1.80;;
5754;SDS011;2902;42.130;24.732;2022-08-01T08:50:32;1.60;;;1.50;;
5754;SDS011;2902;42.130;24.732;2022-08-01T08:52:59;7.40;;;1.83;;
5754;SDS011;2902;42.130;24.732;2022-08-01T08:55:28;7.03;;;1.77;;
5754;SDS011;2902;42.130;24.732;2022-08-01T08:57:55;11.40;;;1.93;;
5754;SDS011;2902;42.130;24.732;2022-08-01T09:00:24;1.70;;;1.50;;
5754;SDS011;2902;42.130;24.732;2022-08-01T09:02:52;11.33;;;2.77;;
5754;SDS011;2902;42.130;24.732;2022-08-01T09:05:22;2.53;;;1.60;;
5754;SDS011;2902;42.130;24.732;2022-08-01T09:07:51;5.57;;;1.40;;
5754;SDS011;2902;42.130;24.732;2022-08-01T09:10:18;2.90;;;1.40;;
5754;SDS011;2902;42.130;24.732;2022-08-01T09:13:07;1.63;;;1.53;;
5754;SDS011;2902;42.130;24.732;2022-08-01T09:15:39;2.73;;;1.50;;
5754;SDS011;2902;42.130;24.732;2022-08-01T09:18:08;2.00;;;1.40;;
5754;SDS011;2902;42.130;24.732;2022-08-01T09:20:51;5.83;;;1.63;;
5754;SDS011;2902;42.130;24.732;2022-08-01T09:23:33;17.07;;;2.43;;
5754;SDS011;2902;42.130;24.732;2022-08-01T09:26:01;5.77;;;1.60;;
5754;SDS011;2902;42.130;24.732;2022-08-01T09:28:28;6.20;;;1.80;;
5754;SDS011;2902;42.130;24.732;2022-08-01T09:30:55;4.57;;;1.57;;
5754;SDS011;2902;42.130;24.732;2022-08-01T09:33:24;8.70;;;1.80;;
5754;SDS011;2902;42.130;24.732;2022-08-01T09:35:53;4.27;;;1.47;;
5754;SDS011;2902;42.130;24.732;2022-08-01T09:38:21;1.90;;;1.53;;
5754;SDS011;2902;42.130;24.732;2022-08-01T09:40:51;1.60;;;1.50;;
5754;SDS011;2902;42.130;24.732;2022-08-01T09:43:20;6.07;;;1.60;;
5754;SDS011;2902;42.130;24.732;2022-08-01T09:45:48;1.40;;;1.40;;
5754;SDS011;2902;42.130;24.732;2022-08-01T09:48:15;1.63;;;1.30;;
5754;SDS011;2902;42.130;24.732;2022-08-01T09:50:44;3.87;;;1.40;;
5754;SDS011;2902;42.130;24.732;2022-08-01T09:53:12;2.57;;;1.33;;
5754;SDS011;2902;42.130;24.732;2022-08-01T09:55:40;4.30;;;1.47;;
5754;SDS011;2902;42.130;24.732;2022-08-01T09:58:07;6.53;;;1.87;;
5754;SDS011;2902;42.130;24.732;2022-08-01T10:00:37;3.50;;;1.63;;
5754;SDS011;2902;42.130;24.732;2022-08-01T10:03:18;3.13;;;1.40;;
5754;SDS011;2902;42.130;24.732;2022-08-01T10:05:47;1.70;;;1.60;;
5754;SDS011;2902;42.130;24.732;2022-08-01T10:08:15;1.50;;;1.40;;
5754;SDS011;2902;42.130;24.732;2022-08-01T10:10:42;5.87;;;1.50;;
5754;SDS011;2902;42.130;24.732;2022-08-01T10:13:30;1.57;;;1.40;;
5754;SDS011;2902;42.130;24.732;2022-08-01T10:15:57;2.03;;;1.23;;
5754;SDS011;2902;42.130;24.732;2022-08-01T10:18:24;4.07;;;1.50;;
5754;SDS011;2902;42.130;24.732;2022-08-01T10:20:52;3.67;;;1.37;;
5754;SDS011;2902;42.130;24.732;2022-08-01T10:23:20;4.67;;;1.40;;
5754;SDS011;2902;42.130;24.732;2022-08-01T10:25:48;4.63;;;1.73;;
5754;SDS011;2902;42.130;24.732;2022-08-01T10:28:17;2.27;;;1.63;;
5754;SDS011;2902;42.130;24.732;2022-08-01T10:30:46;2.33;;;1.10;;
5754;SDS011;2902;42.130;24.732;2022-08-01T10:33:14;5.70;;;1.27;;
5754;SDS011;2902;42.130;24.732;2022-08-01T10:35:41;1.30;;;1.20;;
5754;SDS011;2902;42.130;24.732;2022-08-01T10:38:13;2.70;;;1.20;;
5754;SDS011;2902;42.130;24.732;2022-08-01T10:40:41;1.63;;;1.50;;
5754;SDS011;2902;42.130;24.732;2022-08-01T10:43:09;2.80;;;1.20;;
5754;SDS011;2902;42.130;24.732;2022-08-01T10:45:36;5.60;;;1.33;;
5754;SDS011;2902;42.130;24.732;2022-08-01T10:48:03;3.73;;;1.37;;
5754;SDS011;2902;42.130;24.732;2022-08-01T10:50:37;1.33;;;1.33;;
5754;SDS011;2902;42.130;24.732;2022-08-01T10:53:11;7.23;;;1.50;;
5754;SDS011;2902;42.130;24.732;2022-08-01T10:55:47;2.30;;;1.00;;
5754;SDS011;2902;42.130;24.732;2022-08-01T10:58:19;1.30;;;1.30;;
5754;SDS011;2902;42.130;24.732;2022-08-01T11:00:47;3.65;;;1.70;;
5754;SDS011;2902;42.130;24.732;2022-08-01T11:03:14;1.33;;;1.23;;
5754;SDS011;2902;42.130;24.732;2022-08-01T11:05:41;1.90;;;1.10;;
5754;SDS011;2902;42.130;24.732;2022-08-01T11:08:12;3.40;;;1.40;;
5754;SDS011;2902;42.130;24.732;2022-08-01T11:10:50;2.15;;;1.13;;
5754;SDS011;2902;42.130;24.732;2022-08-01T11:16:26;3.53;;;1.52;;
5754;SDS011;2902;42.130;24.732;2022-08-01T11:18:53;2.58;;;1.40;;
5754;SDS011;2902;42.130;24.732;2022-08-01T11:21:20;2.15;;;1.17;;
5754;SDS011;2902;42.130;24.732;2022-08-01T11:23:50;1.63;;;1.30;;
5754;SDS011;2902;42.130;24.732;2022-08-01T11:26:18;1.70;;;1.60;;
5754;SDS011;2902;42.130;24.732;2022-08-01T11:29:10;1.30;;;1.20;;
5754;SDS011;2902;42.130;24.732;2022-08-01T11:31:38;1.43;;;1.33;;
5754;SDS011;2902;42.130;24.732;2022-08-01T11:34:05;2.75;;;1.50;;
5754;SDS011;2902;42.130;24.732;2022-08-01T11:36:32;2.13;;;1.45;;
5754;SDS011;2902;42.130;24.732;2022-08-01T11:39:16;9.35;;;1.58;;
5754;SDS011;2902;42.130;24.732;2022-08-01T11:41:44;6.13;;;1.65;;
5754;SDS011;2902;42.130;24.732;2022-08-01T11:44:13;3.22;;;1.50;;
5754;SDS011;2902;42.130;24.732;2022-08-01T11:46:49;2.47;;;1.50;;
5754;SDS011;2902;42.130;24.732;2022-08-01T11:49:24;2.10;;;1.50;;
5754;SDS011;2902;42.130;24.732;2022-08-01T11:52:10;1.20;;;1.17;;
5754;SDS011;2902;42.130;24.732;2022-08-01T11:54:40;2.70;;;1.45;;
5754;SDS011;2902;42.130;24.732;2022-08-01T11:57:10;2.27;;;1.50;;
5754;SDS011;2902;42.130;24.732;2022-08-01T11:59:39;4.60;;;1.40;;
5754;SDS011;2902;42.130;24.732;2022-08-01T12:02:21;1.83;;;1.73;;
5754;SDS011;2902;42.130;24.732;2022-08-01T12:04:50;3.40;;;1.83;;
5754;SDS011;2902;42.130;24.732;2022-08-01T12:07:19;3.33;;;1.60;;
5754;SDS011;2902;42.130;24.732;2022-08-01T12:09:47;1.75;;;1.52;;
5754;SDS011;2902;42.130;24.732;2022-08-01T12:12:15;3.63;;;1.60;;
5754;SDS011;2902;42.130;24.732;2022-08-01T12:14:45;3.88;;;1.50;;
5754;SDS011;2902;42.130;24.732;2022-08-01T12:17:20;2.60;;;1.95;;
5754;SDS011;2902;42.130;24.732;2022-08-01T12:19:53;4.53;;;1.45;;
5754;SDS011;2902;42.130;24.732;2022-08-01T12:22:21;2.25;;;1.50;;
5754;SDS011;2902;42.130;24.732;2022-08-01T12:24:50;5.22;;;1.92;;
5754;SDS011;2902;42.130;24.732;2022-08-01T12:27:24;1.60;;;1.50;;
5754;SDS011;2902;42.130;24.732;2022-08-01T12:29:52;10.65;;;2.30;;
5754;SDS011;2902;42.130;24.732;2022-08-01T12:32:23;3.67;;;1.42;;
5754;SDS011;2902;42.130;24.732;2022-08-01T12:34:51;4.97;;;1.67;;
5754;SDS011;2902;42.130;24.732;2022-08-01T12:37:19;3.20;;;1.55;;
5754;SDS011;2902;42.130;24.732;2022-08-01T12:39:46;1.80;;;1.70;;
5754;SDS011;2902;42.130;24.732;2022-08-01T12:42:15;5.57;;;1.42;;
5754;SDS011;2902;42.130;24.732;2022-08-01T12:44:43;2.83;;;1.70;;
5754;SDS011;2902;42.130;24.732;2022-08-01T12:47:12;4.32;;;1.73;;
5754;SDS011;2902;42.130;24.732;2022-08-01T12:49:40;2.35;;;1.55;;
5754;SDS011;2902;42.130;24.732;2022-08-01T12:52:08;1.70;;;1.60;;
5754;SDS011;2902;42.130;24.732;2022-08-01T12:57:35;4.03;;;1.50;;
5754;SDS011;2902;42.130;24.732;2022-08-01T13:00:06;1.70;;;1.60;;
5754;SDS011;2902;42.130;24.732;2022-08-01T13:02:35;16.92;;;2.28;;
5754;SDS011;2902;42.130;24.732;2022-08-01T13:05:02;1.53;;;1.53;;
5754;SDS011;2902;42.130;24.732;2022-08-01T13:07:36;3.37;;;1.80;;
5754;SDS011;2902;42.130;24.732;2022-08-01T13:10:09;1.60;;;1.50;;
5754;SDS011;2902;42.130;24.732;2022-08-01T13:12:38;3.43;;;1.80;;
5754;SDS011;2902;42.130;24.732;2022-08-01T13:15:16;1.97;;;1.73;;
5754;SDS011;2902;42.130;24.732;2022-08-01T13:17:48;2.20;;;1.77;;
5754;SDS011;2902;42.130;24.732;2022-08-01T13:20:31;3.50;;;1.80;;
5754;SDS011;2902;42.130;24.732;2022-08-01T13:23:09;3.72;;;1.67;;
5754;SDS011;2902;42.130;24.732;2022-08-01T13:25:47;1.70;;;1.60;;
5754;SDS011;2902;42.130;24.732;2022-08-01T13:28:17;3.90;;;1.80;;
5754;SDS011;2902;42.130;24.732;2022-08-01T13:30:53;3.88;;;1.63;;
5754;SDS011;2902;42.130;24.732;2022-08-01T13:33:20;3.03;;;1.70;;
5754;SDS011;2902;42.130;24.732;2022-08-01T13:35:48;3.47;;;1.40;;
5754;SDS011;2902;42.130;24.732;2022-08-01T13:38:16;1.93;;;1.57;;
5754;SDS011;2902;42.130;24.732;2022-08-01T13:40:43;1.70;;;1.60;;
5754;SDS011;2902;42.130;24.732;2022-08-01T13:43:10;3.13;;;1.50;;
5754;SDS011;2902;42.130;24.732;2022-08-01T13:45:38;3.50;;;1.70;;
5754;SDS011;2902;42.130;24.732;2022-08-01T13:48:06;2.10;;;1.60;;
5754;SDS011;2902;42.130;24.732;2022-08-01T13:50:33;20.17;;;2.77;;
5754;SDS011;2902;42.130;24.732;2022-08-01T13:52:59;7.83;;;2.03;;
5754;SDS011;2902;42.130;24.732;2022-08-01T13:55:26;1.90;;;1.73;;
5754;SDS011;2902;42.130;24.732;2022-08-01T13:57:53;1.93;;;1.67;;
5754;SDS011;2902;42.130;24.732;2022-08-01T14:00:19;2.93;;;1.80;;
5754;SDS011;2902;42.130;24.732;2022-08-01T14:02:48;2.50;;;1.60;;
5754;SDS011;2902;42.130;24.732;2022-08-01T14:05:14;3.03;;;1.63;;
5754;SDS011;2902;42.130;24.732;2022-08-01T14:07:41;1.60;;;1.60;;
5754;SDS011;2902;42.130;24.732;2022-08-01T14:10:09;3.43;;;1.70;;
5754;SDS011;2902;42.130;24.732;2022-08-01T14:12:36;3.10;;;1.67;;
5754;SDS011;2902;42.130;24.732;2022-08-01T14:15:03;2.47;;;1.75;;
5754;SDS011;2902;42.130;24.732;2022-08-01T14:17:30;2.13;;;1.90;;
5754;SDS011;2902;42.130;24.732;2022-08-01T14:20:00;1.60;;;1.50;;
5754;SDS011;2902;42.130;24.732;2022-08-01T14:22:27;1.93;;;1.83;;
5754;SDS011;2902;42.130;24.732;2022-08-01T14:24:54;2.80;;;1.90;;
5754;SDS011;2902;42.130;24.732;2022-08-01T14:27:21;1.63;;;1.60;;
5754;SDS011;2902;42.130;24.732;2022-08-01T14:29:47;4.85;;;1.83;;
5754;SDS011;2902;42.130;24.732;2022-08-01T14:32:14;2.83;;;2.13;;
5754;SDS011;2902;42.130;24.732;2022-08-01T14:34:41;1.90;;;1.80;;
5754;SDS011;2902;42.130;24.732;2022-08-01T14:37:09;1.70;;;1.60;;
5754;SDS011;2902;42.130;24.732;2022-08-01T14:39:36;2.25;;;1.77;;
5754;SDS011;2902;42.130;24.732;2022-08-01T14:42:03;11.17;;;3.37;;
5754;SDS011;2902;42.130;24.732;2022-08-01T14:44:30;3.40;;;1.90;;
5754;SDS011;2902;42.130;24.732;2022-08-01T14:46:56;6.20;;;2.27;;
5754;SDS011;2902;42.130;24.732;2022-08-01T14:49:23;5.00;;;1.83;;
5754;SDS011;2902;42.130;24.732;2022-08-01T14:51:50;6.00;;;3.03;;
5754;SDS011;2902;42.130;24.732;2022-08-01T14:54:18;1.90;;;1.80;;
5754;SDS011;2902;42.130;24.732;2022-08-01T14:56:45;2.00;;;1.90;;
5754;SDS011;2902;42.130;24.732;2022-08-01T14:59:12;3.50;;;1.97;;
5754;SDS011;2902;42.130;24.732;2022-08-01T15:01:38;2.60;;;2.40;;
5754;SDS011;2902;42.130;24.732;2022-08-01T15:04:05;3.13;;;1.80;;
5754;SDS011;2902;42.130;24.732;2022-08-01T15:06:32;2.93;;;2.40;;
5754;SDS011;2902;42.130;24.732;2022-08-01T15:08:58;1.93;;;1.70;;
5754;SDS011;2902;42.130;24.732;2022-08-01T15:11:26;2.17;;;2.03;;
5754;SDS011;2902;42.130;24.732;2022-08-01T15:13:53;1.93;;;1.83;;
5754;SDS011;2902;42.130;24.732;2022-08-01T15:16:34;2.27;;;2.07;;